createdAt,value
2022-12-09T00:04:45.226Z,2.24
2022-12-09T00:09:47.234Z,2.20
2022-12-09T00:14:49.212Z,2.25
2022-12-09T00:19:51.131Z,2.25
2022-12-09T00:24:52.733Z,2.33
2022-12-09T00:29:54.931Z,2.41
2022-12-09T00:34:56.817Z,2.48
2022-12-09T00:39:58.467Z,2.43
2022-12-09T00:45:00.189Z,2.44
2022-12-09T00:50:01.897Z,2.38
2022-12-09T00:55:03.937Z,2.33
2022-12-09T01:00:07.036Z,2.35
2022-12-09T01:05:09.309Z,2.43
2022-12-09T01:10:12.107Z,2.41
2022-12-09T01:15:14.610Z,2.29
2022-12-09T01:20:16.398Z,2.30
2022-12-09T01:25:18.032Z,2.25
2022-12-09T01:30:20.021Z,2.18
2022-12-09T01:35:22.345Z,2.16
2022-12-09T01:40:24.279Z,2.14
2022-12-09T01:45:36.709Z,2.06
2022-12-09T01:50:39.625Z,2.06
2022-12-09T01:55:41.935Z,1.99
2022-12-09T02:00:44.508Z,2.03
2022-12-09T02:05:47.432Z,2.11
2022-12-09T02:10:49.469Z,2.19
2022-12-09T02:15:53.458Z,2.26
2022-12-09T02:21:02.618Z,2.27
2022-12-09T02:26:17.963Z,2.29
2022-12-09T02:31:27.745Z,2.28
2022-12-09T02:36:33.786Z,2.15
2022-12-09T02:41:37.409Z,2.09
2022-12-09T02:46:41.161Z,2.18
2022-12-09T02:51:46.296Z,2.13
2022-12-09T02:56:53.506Z,2.12
2022-12-09T03:01:56.704Z,2.18
2022-12-09T03:07:11.164Z,2.21
2022-12-09T03:12:15.105Z,2.23
2022-12-09T03:17:36.964Z,2.27
2022-12-09T03:22:41.523Z,2.32
2022-12-09T03:27:47.999Z,2.26
2022-12-09T03:32:51.003Z,2.13
2022-12-09T03:37:53.866Z,2.10
2022-12-09T03:43:01.528Z,2.01
2022-12-09T03:48:03.659Z,1.92
2022-12-09T03:53:13.165Z,1.82
2022-12-09T03:58:16.386Z,1.86
2022-12-09T04:03:18.890Z,1.93
2022-12-09T04:08:20.791Z,1.87
2022-12-09T04:13:22.644Z,1.98
2022-12-09T04:18:24.435Z,1.97
2022-12-09T04:23:26.276Z,1.99
2022-12-09T04:28:27.931Z,2.03
2022-12-09T04:33:30.003Z,1.93
2022-12-09T04:38:32.189Z,1.94
2022-12-09T04:43:34.429Z,1.95
2022-12-09T04:48:36.618Z,2.09
2022-12-09T04:53:38.861Z,2.03
2022-12-09T04:58:40.606Z,1.99
2022-12-09T05:03:42.730Z,2.11
2022-12-09T05:08:44.751Z,2.09
2022-12-09T05:13:47.177Z,2.11
2022-12-09T05:18:49.117Z,2.09
2022-12-09T05:23:51.115Z,2.11
2022-12-09T05:28:53.104Z,2.06
2022-12-09T05:33:54.971Z,2.11
2022-12-09T05:38:57.245Z,2.12
2022-12-09T05:43:59.500Z,2.10
2022-12-09T05:49:01.953Z,2.04
2022-12-09T05:54:04.736Z,1.97
2022-12-09T05:59:06.714Z,2.07
2022-12-09T06:04:08.458Z,2.19
2022-12-09T06:09:12.224Z,2.22
2022-12-09T06:14:14.437Z,2.27
2022-12-09T06:19:16.209Z,2.61
2022-12-09T06:24:18.305Z,2.97
2022-12-09T06:29:20.190Z,2.72
2022-12-09T06:34:22.346Z,2.56
2022-12-09T06:39:24.635Z,2.50
2022-12-09T06:44:26.908Z,2.43
2022-12-09T06:49:28.713Z,2.45
2022-12-09T06:54:30.982Z,2.48
2022-12-09T06:59:32.893Z,2.47
2022-12-09T07:04:35.247Z,2.47
2022-12-09T07:09:37.885Z,2.43
2022-12-09T07:14:39.948Z,2.44
2022-12-09T07:19:42.022Z,2.46
2022-12-09T07:24:44.591Z,2.43
2022-12-09T07:29:47.064Z,2.50
2022-12-09T07:34:49.437Z,2.49
2022-12-09T07:39:51.453Z,2.48
2022-12-09T07:44:53.442Z,2.48
2022-12-09T07:49:55.441Z,2.47
2022-12-09T07:55:00.863Z,2.45
2022-12-09T08:00:04.238Z,2.50
2022-12-09T08:05:13.670Z,2.49
2022-12-09T08:10:15.836Z,2.49
2022-12-09T08:15:19.473Z,2.52
2022-12-09T08:20:27.406Z,2.63
2022-12-09T08:25:30.980Z,2.69
2022-12-09T08:30:32.810Z,2.66
2022-12-09T08:35:36.720Z,2.68
2022-12-09T08:40:38.877Z,2.70
2022-12-09T08:45:41.621Z,2.74
2022-12-09T08:50:43.441Z,2.74
2022-12-09T08:55:45.543Z,2.77
2022-12-09T09:00:47.551Z,2.78
2022-12-09T09:05:49.570Z,2.79
2022-12-09T09:10:51.956Z,2.79
2022-12-09T09:15:54.182Z,2.88
2022-12-09T09:20:59.602Z,2.92
2022-12-09T09:26:01.831Z,2.89
2022-12-09T09:31:05.393Z,2.92
2022-12-09T09:36:10.425Z,2.95
2022-12-09T09:41:18.725Z,3.02
2022-12-09T09:46:28.611Z,3.07
2022-12-09T09:51:33.012Z,3.13
2022-12-09T09:56:37.622Z,3.13
2022-12-09T10:01:39.764Z,3.14
2022-12-09T10:06:49.903Z,3.14
2022-12-09T10:11:52.655Z,3.23
2022-12-09T10:17:06.974Z,3.26
2022-12-09T10:22:12.781Z,3.21
2022-12-09T10:27:21.192Z,3.17
2022-12-09T10:32:24.976Z,3.18
2022-12-09T10:37:27.601Z,3.21
2022-12-09T10:42:50.544Z,3.37
2022-12-09T10:47:53.262Z,3.38
2022-12-09T10:52:56.154Z,3.27
2022-12-09T10:58:11.903Z,3.26
2022-12-09T11:03:24.681Z,3.25
2022-12-09T11:08:26.651Z,3.25
2022-12-09T11:13:37.278Z,3.26
2022-12-09T11:18:44.339Z,3.29
2022-12-09T11:24:00.783Z,3.25
2022-12-09T11:29:15.670Z,3.25
2022-12-09T11:34:23.294Z,3.23
2022-12-09T11:39:29.900Z,3.24
2022-12-09T11:44:32.438Z,3.25
2022-12-09T11:49:54.437Z,3.31
2022-12-09T11:55:15.066Z,3.39
2022-12-09T12:00:21.387Z,3.40
2022-12-09T12:05:42.092Z,3.40
2022-12-09T12:10:46.872Z,3.38
2022-12-09T12:15:48.458Z,3.36
2022-12-09T12:21:02.387Z,3.32
2022-12-09T12:26:10.984Z,3.26
2022-12-09T12:31:15.359Z,3.24
2022-12-09T12:36:32.340Z,3.28
2022-12-09T12:41:54.478Z,3.35
2022-12-09T12:47:07.862Z,3.43
2022-12-09T12:52:54.194Z,3.47
2022-12-09T12:58:02.196Z,3.50
2022-12-09T13:03:25.986Z,3.50
2022-12-09T13:08:35.621Z,3.55
2022-12-09T13:13:50.567Z,3.57
2022-12-09T13:18:52.444Z,3.55
2022-12-09T13:24:21.781Z,3.53
2022-12-09T13:29:38.117Z,3.52
2022-12-09T13:34:51.485Z,3.52
2022-12-09T13:39:54.532Z,3.55
2022-12-09T13:45:03.608Z,3.54
2022-12-09T13:50:06.925Z,3.56
2022-12-09T13:55:19.750Z,3.54
2022-12-09T14:00:21.631Z,3.52
2022-12-09T14:05:25.982Z,3.53
2022-12-09T14:10:44.107Z,3.54
2022-12-09T14:15:46.299Z,3.55
2022-12-09T14:21:07.843Z,3.56
2022-12-09T14:26:09.500Z,3.53
2022-12-09T14:31:11.178Z,3.46
2022-12-09T14:36:12.820Z,3.45
2022-12-09T14:41:23.322Z,4.05
2022-12-09T14:46:30.335Z,3.86
2022-12-09T14:51:36.563Z,3.71
2022-12-09T14:56:38.502Z,3.58
2022-12-09T15:01:57.161Z,3.57
2022-12-09T15:07:08.010Z,3.53
2022-12-09T15:12:11.160Z,3.45
2022-12-09T15:17:22.468Z,3.35
2022-12-09T15:22:27.673Z,3.31
2022-12-09T15:27:29.970Z,3.29
2022-12-09T15:32:31.794Z,3.31
2022-12-09T15:37:33.730Z,3.25
2022-12-09T15:42:38.472Z,3.21
2022-12-09T15:47:40.083Z,3.16
2022-12-09T15:52:44.944Z,3.15
2022-12-09T15:57:48.888Z,3.20
2022-12-09T16:02:51.019Z,3.22
2022-12-09T16:07:54.461Z,3.27
2022-12-09T16:13:06.881Z,3.34
2022-12-09T16:18:13.632Z,3.38
2022-12-09T16:23:20.559Z,3.31
2022-12-09T16:28:23.338Z,3.22
2022-12-09T16:33:25.349Z,3.29
2022-12-09T16:38:27.033Z,3.39
2022-12-09T16:43:30.409Z,3.44
2022-12-09T16:48:32.039Z,3.42
2022-12-09T16:53:35.191Z,3.53
2022-12-09T16:58:37.281Z,3.61
2022-12-09T17:03:44.591Z,3.58
2022-12-09T17:08:46.532Z,3.41
2022-12-09T17:13:51.282Z,3.38
2022-12-09T17:18:53.024Z,3.43
2022-12-09T17:23:54.788Z,3.46
2022-12-09T17:29:01.632Z,3.53
2022-12-09T17:34:03.592Z,3.51
2022-12-09T17:39:06.815Z,3.50
2022-12-09T17:44:08.880Z,3.51
2022-12-09T17:49:10.530Z,3.44
2022-12-09T17:54:12.139Z,3.36
2022-12-09T17:59:15.476Z,3.39
2022-12-09T18:04:17.365Z,3.29
2022-12-09T18:09:19.129Z,3.22
2022-12-09T18:14:20.835Z,3.32
2022-12-09T18:19:24.843Z,3.37
2022-12-09T18:24:26.942Z,3.40
2022-12-09T18:29:29.133Z,3.41
2022-12-09T18:34:32.841Z,3.41
2022-12-09T18:39:34.493Z,3.41
2022-12-09T18:44:36.127Z,3.36
2022-12-09T18:49:37.747Z,3.40
2022-12-09T18:54:39.420Z,3.43
2022-12-09T18:59:41.008Z,3.41
2022-12-09T19:04:42.642Z,3.43
2022-12-09T19:09:44.204Z,3.28
2022-12-09T19:14:45.754Z,3.21
2022-12-09T19:19:48.388Z,3.27
2022-12-09T19:24:49.979Z,3.31
2022-12-09T19:29:51.629Z,3.37
2022-12-09T19:34:53.297Z,3.39
2022-12-09T19:39:55.034Z,3.35
2022-12-09T19:45:01.906Z,3.31
2022-12-09T19:50:05.259Z,3.33
2022-12-09T19:55:08.355Z,3.34
2022-12-09T20:00:11.222Z,3.30
2022-12-09T20:05:12.884Z,3.18
2022-12-09T20:10:16.870Z,3.10
2022-12-09T20:15:18.457Z,3.10
2022-12-09T20:20:20.049Z,3.13
2022-12-09T20:25:21.693Z,3.22
2022-12-09T20:30:23.323Z,3.29
2022-12-09T20:35:25.592Z,3.37
2022-12-09T20:40:27.266Z,3.39
2022-12-09T20:45:28.877Z,3.37
2022-12-09T20:50:36.793Z,3.37
2022-12-09T20:55:40.134Z,3.40
2022-12-09T21:00:41.908Z,3.42
2022-12-09T21:05:43.548Z,3.44
2022-12-09T21:10:45.181Z,3.43
2022-12-09T21:15:46.816Z,3.43
2022-12-09T21:20:48.396Z,3.41
2022-12-09T21:25:50.005Z,3.44
2022-12-09T21:30:52.224Z,3.43
2022-12-09T21:35:53.974Z,3.44
2022-12-09T21:40:55.568Z,3.45
2022-12-09T21:45:57.805Z,3.49
2022-12-09T21:51:00.536Z,3.42
2022-12-09T21:56:06.118Z,3.31
2022-12-09T22:01:09.135Z,3.32
2022-12-09T22:06:11.435Z,3.24
2022-12-09T22:11:15.288Z,3.30
2022-12-09T22:16:18.616Z,3.34
2022-12-09T22:21:26.060Z,3.38
2022-12-09T22:26:29.118Z,3.41
2022-12-09T22:31:32.646Z,3.43
2022-12-09T22:36:36.753Z,3.50
2022-12-09T22:41:38.510Z,3.44
2022-12-09T22:46:41.617Z,3.46
2022-12-09T22:51:43.736Z,3.45
2022-12-09T22:56:45.500Z,3.33
2022-12-09T23:01:49.253Z,3.36
2022-12-09T23:06:50.920Z,3.33
2022-12-09T23:11:52.983Z,3.26
2022-12-09T23:16:54.887Z,3.35
2022-12-09T23:21:56.542Z,3.40
2022-12-09T23:26:58.353Z,3.44
2022-12-09T23:32:00.034Z,3.35
2022-12-09T23:37:01.956Z,3.23
2022-12-09T23:42:03.727Z,3.31
2022-12-09T23:47:05.490Z,3.38
2022-12-09T23:52:07.249Z,3.41
2022-12-09T23:57:08.848Z,3.45
